createdAt,value
2022-09-09T00:00:28.354Z,21.80
2022-09-09T00:03:05.291Z,20.60
2022-09-09T00:05:41.173Z,25.58
2022-09-09T00:08:24.037Z,23.00
2022-09-09T00:10:55.908Z,21.35
2022-09-09T00:13:32.492Z,19.05
2022-09-09T00:16:06.883Z,17.25
2022-09-09T00:18:49.840Z,15.70
2022-09-09T00:21:20.341Z,17.52
2022-09-09T00:23:55.907Z,21.85
2022-09-09T00:26:35.506Z,17.85
2022-09-09T00:29:12.676Z,24.55
2022-09-09T00:31:41.599Z,21.13
2022-09-09T00:34:15.157Z,23.23
2022-09-09T00:36:45.959Z,22.73
2022-09-09T00:39:24.789Z,25.50
2022-09-09T00:42:10.513Z,29.30
2022-09-09T00:44:41.156Z,27.95
2022-09-09T00:47:27.246Z,21.55
2022-09-09T00:50:05.875Z,28.98
2022-09-09T00:52:47.206Z,26.40
2022-09-09T00:55:24.257Z,25.83
2022-09-09T00:57:55.924Z,25.38
2022-09-09T01:00:28.167Z,29.30
2022-09-09T01:03:23.465Z,25.98
2022-09-09T01:06:02.295Z,29.77
2022-09-09T01:08:51.753Z,24.83
2022-09-09T01:11:27.084Z,23.23
2022-09-09T01:14:05.112Z,20.02
2022-09-09T01:16:35.524Z,22.00
2022-09-09T01:19:07.479Z,23.42
2022-09-09T01:21:42.341Z,24.23
2022-09-09T01:24:28.603Z,24.27
2022-09-09T01:27:04.039Z,22.10
2022-09-09T01:29:35.268Z,24.27
2022-09-09T01:32:06.249Z,18.83
2022-09-09T01:34:41.425Z,23.98
2022-09-09T01:37:11.507Z,22.38
2022-09-09T01:39:43.690Z,20.67
2022-09-09T01:42:18.730Z,23.98
2022-09-09T01:44:47.704Z,25.33
2022-09-09T01:47:19.191Z,23.55
2022-09-09T01:49:47.462Z,24.02
2022-09-09T01:52:17.899Z,23.48
2022-09-09T01:54:47.846Z,24.85
2022-09-09T01:57:27.494Z,24.27
2022-09-09T02:00:10.425Z,24.60
2022-09-09T02:02:49.595Z,25.42
2022-09-09T02:05:31.078Z,27.33
2022-09-09T02:08:07.925Z,27.27
2022-09-09T02:10:44.012Z,21.55
2022-09-09T02:13:17.279Z,20.45
2022-09-09T02:15:55.035Z,24.50
2022-09-09T02:18:33.316Z,22.38
2022-09-09T02:21:02.879Z,22.90
2022-09-09T02:23:32.010Z,24.25
2022-09-09T02:26:01.464Z,19.70
2022-09-09T02:28:35.222Z,19.42
2022-09-09T02:31:03.746Z,20.60
2022-09-09T02:33:38.395Z,19.67
2022-09-09T02:36:10.499Z,20.80
2022-09-09T02:38:51.619Z,14.95
2022-09-09T02:41:34.234Z,21.98
2022-09-09T02:44:08.159Z,15.55
2022-09-09T02:46:58.717Z,19.48
2022-09-09T02:49:35.889Z,16.73
2022-09-09T02:52:18.313Z,16.38
2022-09-09T02:54:47.528Z,18.63
2022-09-09T02:57:23.605Z,19.90
2022-09-09T02:59:54.960Z,16.52
2022-09-09T03:02:23.489Z,16.80
2022-09-09T03:04:55.969Z,19.27
2022-09-09T03:07:26.372Z,18.75
2022-09-09T03:09:56.116Z,16.55
2022-09-09T03:12:24.528Z,16.08
2022-09-09T03:14:56.903Z,15.55
2022-09-09T03:17:25.952Z,16.23
2022-09-09T03:20:00.127Z,15.65
2022-09-09T03:22:29.901Z,20.20
2022-09-09T03:24:59.429Z,18.08
2022-09-09T03:27:28.291Z,18.50
2022-09-09T03:29:58.883Z,19.42
2022-09-09T03:32:28.154Z,16.27
2022-09-09T03:34:56.592Z,17.75
2022-09-09T03:37:25.368Z,15.80
2022-09-09T03:39:55.726Z,21.30
2022-09-09T03:42:25.288Z,22.90
2022-09-09T03:44:53.947Z,14.88
2022-09-09T03:47:24.641Z,20.60
2022-09-09T03:49:52.963Z,25.83
2022-09-09T03:52:27.807Z,29.92
2022-09-09T03:54:58.204Z,28.38
2022-09-09T03:57:26.892Z,20.98
2022-09-09T03:59:55.704Z,22.90
2022-09-09T04:02:28.482Z,18.88
2022-09-09T04:04:57.804Z,15.75
2022-09-09T04:07:28.997Z,20.58
2022-09-09T04:09:58.231Z,16.85
2022-09-09T04:12:27.207Z,16.98
2022-09-09T04:14:56.383Z,19.88
2022-09-09T04:17:25.322Z,20.80
2022-09-09T04:19:56.273Z,14.43
2022-09-09T04:22:24.772Z,15.10
2022-09-09T04:24:53.252Z,17.42
2022-09-09T04:27:22.039Z,16.83
2022-09-09T04:29:50.653Z,16.95
2022-09-09T04:32:19.940Z,15.70
2022-09-09T04:34:49.736Z,15.02
2022-09-09T04:37:20.502Z,18.35
2022-09-09T04:39:49.211Z,15.85
2022-09-09T04:42:17.799Z,17.27
2022-09-09T04:44:46.315Z,13.77
2022-09-09T04:47:16.393Z,14.45
2022-09-09T04:49:47.020Z,16.25
2022-09-09T04:52:22.942Z,16.23
2022-09-09T04:54:55.385Z,15.45
2022-09-09T04:57:27.864Z,15.90
2022-09-09T04:59:56.552Z,15.93
2022-09-09T05:02:30.957Z,17.40
2022-09-09T05:05:00.199Z,20.02
2022-09-09T05:07:32.830Z,15.95
2022-09-09T05:10:01.369Z,13.13
2022-09-09T05:12:30.648Z,17.00
2022-09-09T05:15:00.141Z,19.38
2022-09-09T05:17:30.080Z,17.10
2022-09-09T05:20:09.568Z,14.65
2022-09-09T05:22:40.558Z,16.23
2022-09-09T05:25:11.034Z,15.82
2022-09-09T05:27:40.479Z,18.02
2022-09-09T05:30:11.154Z,16.48
2022-09-09T05:32:39.816Z,19.45
2022-09-09T05:35:09.974Z,17.85
2022-09-09T05:37:40.173Z,13.27
2022-09-09T05:40:10.812Z,15.45
2022-09-09T05:42:40.386Z,16.38
2022-09-09T05:45:10.177Z,19.50
2022-09-09T05:47:39.074Z,16.88
2022-09-09T05:50:08.867Z,20.65
2022-09-09T05:52:39.778Z,21.17
2022-09-09T05:55:10.640Z,15.45
2022-09-09T05:57:38.985Z,18.13
2022-09-09T06:00:09.876Z,15.43
2022-09-09T06:02:40.033Z,16.58
2022-09-09T06:05:12.376Z,23.63
2022-09-09T06:07:45.016Z,17.92
2022-09-09T06:10:14.748Z,16.63
2022-09-09T06:12:44.724Z,14.77
2022-09-09T06:15:13.209Z,19.40
2022-09-09T06:17:43.385Z,16.35
2022-09-09T06:20:12.396Z,16.80
2022-09-09T06:22:44.387Z,17.80
2022-09-09T06:25:14.098Z,13.48
2022-09-09T06:27:43.230Z,15.65
2022-09-09T06:30:12.916Z,13.38
2022-09-09T06:32:41.852Z,13.50
2022-09-09T06:35:11.928Z,15.57
2022-09-09T06:37:40.808Z,11.23
2022-09-09T06:40:13.309Z,12.43
2022-09-09T06:42:42.365Z,14.23
2022-09-09T06:45:12.206Z,11.65
2022-09-09T06:47:40.745Z,10.43
2022-09-09T06:50:12.251Z,9.90
2022-09-09T06:52:41.009Z,10.68
2022-09-09T06:55:12.030Z,13.00
2022-09-09T06:57:41.131Z,12.48
2022-09-09T07:00:11.078Z,13.43
2022-09-09T07:02:40.875Z,13.57
2022-09-09T07:05:10.551Z,13.88
2022-09-09T07:07:39.099Z,12.70
2022-09-09T07:10:08.695Z,12.50
2022-09-09T07:12:38.897Z,13.73
2022-09-09T07:15:09.094Z,8.35
2022-09-09T07:17:37.588Z,10.05
2022-09-09T07:20:06.939Z,9.13
2022-09-09T07:22:36.415Z,12.63
2022-09-09T07:25:04.808Z,11.38
2022-09-09T07:27:33.510Z,10.43
2022-09-09T07:30:04.920Z,13.50
2022-09-09T07:32:34.270Z,9.65
2022-09-09T07:35:03.274Z,12.25
2022-09-09T07:37:31.747Z,9.77
2022-09-09T07:40:00.338Z,10.77
2022-09-09T07:42:28.983Z,13.18
2022-09-09T07:44:57.589Z,9.80
2022-09-09T07:47:27.934Z,9.10
2022-09-09T07:49:57.054Z,10.70
2022-09-09T07:52:25.525Z,8.52
2022-09-09T07:54:54.506Z,10.32
2022-09-09T07:57:24.442Z,6.20
2022-09-09T07:59:53.566Z,8.35
2022-09-09T08:02:22.100Z,9.90
2022-09-09T08:04:52.732Z,8.00
2022-09-09T08:07:22.827Z,6.82
2022-09-09T08:09:52.658Z,7.47
2022-09-09T08:12:21.796Z,6.28
2022-09-09T08:14:51.221Z,6.10
2022-09-09T08:17:19.764Z,6.35
2022-09-09T08:19:52.702Z,6.57
2022-09-09T08:22:21.797Z,5.57
2022-09-09T08:24:50.104Z,5.10
2022-09-09T08:27:18.515Z,6.38
2022-09-09T08:29:47.345Z,6.03
2022-09-09T08:32:15.820Z,4.93
2022-09-09T08:34:46.709Z,3.83
2022-09-09T08:37:17.016Z,3.75
2022-09-09T08:39:47.462Z,4.78
2022-09-09T08:42:28.364Z,4.90
2022-09-09T08:45:13.931Z,3.72
2022-09-09T08:47:54.404Z,5.13
2022-09-09T08:50:27.231Z,4.63
2022-09-09T08:53:05.364Z,4.72
2022-09-09T08:55:42.832Z,4.68
2022-09-09T08:58:16.813Z,3.88
2022-09-09T09:01:01.488Z,2.38
2022-09-09T09:03:42.809Z,4.43
2022-09-09T09:06:28.716Z,5.45
2022-09-09T09:09:04.209Z,4.80
2022-09-09T09:11:39.896Z,5.07
2022-09-09T09:14:17.060Z,5.05
2022-09-09T09:16:55.268Z,4.70
2022-09-09T09:19:27.459Z,4.05
2022-09-09T09:22:02.159Z,6.25
2022-09-09T09:24:45.137Z,5.85
2022-09-09T09:27:17.346Z,9.73
2022-09-09T09:30:10.841Z,6.32
2022-09-09T09:32:42.275Z,4.03
2022-09-09T09:35:15.289Z,5.63
2022-09-09T09:40:36.283Z,4.22
2022-09-09T09:43:09.829Z,4.05
2022-09-09T09:45:55.205Z,4.82
2022-09-09T09:48:35.848Z,3.03
2022-09-09T09:51:14.343Z,4.55
2022-09-09T09:53:42.911Z,6.60
2022-09-09T09:56:16.502Z,3.50
2022-09-09T09:58:53.442Z,5.75
2022-09-09T10:01:26.340Z,4.82
2022-09-09T10:03:57.806Z,8.32
2022-09-09T10:06:34.947Z,5.40
2022-09-09T10:09:09.638Z,5.38
2022-09-09T10:11:56.345Z,4.85
2022-09-09T10:14:32.123Z,3.88
2022-09-09T10:17:16.182Z,3.75
2022-09-09T10:19:53.949Z,4.43
2022-09-09T10:22:30.293Z,3.53
2022-09-09T10:25:22.139Z,5.70
2022-09-09T10:28:12.599Z,4.43
2022-09-09T10:30:57.382Z,4.40
2022-09-09T10:33:35.738Z,6.30
2022-09-09T10:36:12.339Z,6.15
2022-09-09T10:38:44.809Z,3.75
2022-09-09T10:41:22.781Z,3.25
2022-09-09T10:44:17.622Z,4.50
2022-09-09T10:47:01.872Z,2.90
2022-09-09T10:49:50.829Z,4.72
2022-09-09T10:52:31.311Z,4.97
2022-09-09T10:55:10.073Z,5.32
2022-09-09T10:57:44.330Z,6.88
2022-09-09T11:00:21.902Z,7.97
2022-09-09T11:02:55.893Z,4.72
2022-09-09T11:05:35.506Z,5.57
2022-09-09T11:08:09.872Z,5.68
2022-09-09T11:10:46.669Z,7.63
2022-09-09T11:13:23.674Z,4.80
2022-09-09T11:16:01.346Z,4.35
2022-09-09T11:18:34.642Z,3.08
2022-09-09T11:21:06.979Z,3.58
2022-09-09T11:23:43.218Z,4.53
2022-09-09T11:26:19.491Z,4.78
2022-09-09T11:29:05.391Z,9.73
2022-09-09T11:31:54.542Z,3.10
2022-09-09T11:37:43.783Z,2.78
2022-09-09T11:40:22.144Z,5.60
2022-09-09T11:42:52.164Z,3.25
2022-09-09T11:45:30.453Z,4.35
2022-09-09T11:48:02.689Z,4.07
2022-09-09T11:50:38.002Z,3.88
2022-09-09T11:53:24.136Z,4.40
2022-09-09T11:56:16.096Z,3.00
2022-09-09T11:58:56.701Z,2.38
2022-09-09T12:01:40.961Z,3.70
2022-09-09T12:04:31.560Z,3.13
2022-09-09T12:07:03.695Z,2.90
2022-09-09T12:09:54.048Z,2.92
2022-09-09T12:12:33.269Z,7.53
2022-09-09T12:15:22.140Z,2.70
2022-09-09T12:17:53.234Z,4.32
2022-09-09T12:20:26.135Z,1.92
2022-09-09T12:23:11.734Z,2.28
2022-09-09T12:25:55.511Z,7.15
2022-09-09T12:28:30.453Z,3.08
2022-09-09T12:31:09.355Z,3.17
2022-09-09T12:33:40.630Z,3.92
2022-09-09T12:36:16.079Z,2.88
2022-09-09T12:38:46.175Z,2.53
2022-09-09T12:41:23.825Z,3.30
2022-09-09T12:43:52.531Z,3.47
2022-09-09T12:46:32.439Z,4.75
2022-09-09T12:49:01.157Z,2.58
2022-09-09T12:51:34.388Z,2.65
2022-09-09T12:54:04.837Z,2.40
2022-09-09T12:56:35.743Z,4.03
2022-09-09T12:59:05.195Z,5.65
2022-09-09T13:01:36.499Z,5.50
2022-09-09T13:04:05.793Z,6.15
2022-09-09T13:06:36.023Z,4.60
2022-09-09T13:09:05.546Z,4.65
2022-09-09T13:11:40.540Z,3.25
2022-09-09T13:14:09.559Z,3.03
2022-09-09T13:16:42.910Z,5.53
2022-09-09T13:19:17.499Z,3.17
2022-09-09T13:21:49.366Z,4.50
2022-09-09T13:24:31.206Z,4.88
2022-09-09T13:27:03.077Z,3.03
2022-09-09T13:29:32.911Z,3.88
2022-09-09T13:32:09.388Z,4.30
2022-09-09T13:34:38.554Z,6.65
2022-09-09T13:37:21.815Z,3.92
2022-09-09T13:39:55.589Z,3.90
2022-09-09T13:42:30.380Z,5.47
2022-09-09T13:45:01.499Z,3.63
2022-09-09T13:47:35.713Z,3.28
2022-09-09T13:50:21.912Z,3.40
2022-09-09T13:52:52.774Z,3.67
2022-09-09T13:55:23.477Z,3.80
2022-09-09T13:57:57.891Z,5.70
2022-09-09T14:00:28.125Z,4.88
2022-09-09T14:02:57.389Z,6.75
2022-09-09T14:05:29.046Z,5.28
2022-09-09T14:08:02.190Z,5.43
2022-09-09T14:10:31.138Z,4.63
2022-09-09T14:12:59.955Z,7.50
2022-09-09T14:15:29.110Z,5.30
2022-09-09T14:18:00.306Z,4.45
2022-09-09T14:20:30.374Z,2.80
2022-09-09T14:23:03.518Z,2.75
2022-09-09T14:25:32.738Z,4.18
2022-09-09T14:28:03.791Z,3.17
2022-09-09T14:30:32.895Z,5.88
2022-09-09T14:33:01.835Z,7.15
2022-09-09T14:35:34.954Z,5.68
2022-09-09T14:38:06.968Z,5.40
2022-09-09T14:40:37.556Z,3.42
2022-09-09T14:43:07.305Z,4.57
2022-09-09T14:45:38.618Z,6.13
2022-09-09T14:48:07.890Z,4.95
2022-09-09T14:50:41.553Z,7.15
2022-09-09T14:53:15.685Z,3.58
2022-09-09T14:55:44.990Z,2.05
2022-09-09T14:58:14.811Z,1.80
2022-09-09T15:00:44.584Z,3.42
2022-09-09T15:03:13.376Z,4.18
2022-09-09T15:05:44.487Z,3.03
2022-09-09T15:08:17.826Z,4.05
2022-09-09T15:10:46.522Z,2.13
2022-09-09T15:13:18.739Z,2.67
2022-09-09T15:15:47.564Z,2.60
2022-09-09T15:18:17.345Z,3.03
2022-09-09T15:20:48.792Z,3.20
2022-09-09T15:23:19.674Z,3.38
2022-09-09T15:25:55.717Z,3.03
2022-09-09T15:28:26.442Z,3.55
2022-09-09T15:30:56.196Z,7.20
2022-09-09T15:33:31.663Z,4.68
2022-09-09T15:36:01.035Z,2.47
2022-09-09T15:38:34.076Z,1.02
2022-09-09T15:41:03.183Z,2.72
2022-09-09T15:43:32.909Z,2.17
2022-09-09T15:46:25.656Z,2.88
2022-09-09T15:48:55.924Z,3.58
2022-09-09T15:51:43.211Z,1.98
2022-09-09T15:54:21.745Z,3.08
2022-09-09T15:56:53.942Z,3.55
2022-09-09T15:59:24.027Z,3.70
2022-09-09T16:01:53.489Z,2.55
2022-09-09T16:04:24.720Z,1.73
2022-09-09T16:06:54.374Z,4.00
2022-09-09T16:09:24.456Z,1.52
2022-09-09T16:11:53.366Z,4.78
2022-09-09T16:14:29.713Z,1.77
2022-09-09T16:17:02.848Z,2.95
2022-09-09T16:19:37.106Z,3.60
2022-09-09T16:22:08.288Z,2.25
2022-09-09T16:24:38.569Z,4.05
2022-09-09T16:27:09.820Z,3.20
2022-09-09T16:29:41.396Z,7.47
2022-09-09T16:32:11.550Z,2.03
2022-09-09T16:34:40.504Z,4.70
2022-09-09T16:37:08.872Z,3.13
2022-09-09T16:39:38.959Z,2.72
2022-09-09T16:42:07.823Z,4.93
2022-09-09T16:44:37.074Z,5.72
2022-09-09T16:48:13.948Z,3.63
2022-09-09T16:50:43.433Z,2.78
2022-09-09T16:53:12.700Z,2.97
2022-09-09T16:55:44.434Z,3.97
2022-09-09T16:58:14.123Z,4.10
2022-09-09T17:00:42.715Z,3.78
2022-09-09T17:03:16.912Z,5.45
2022-09-09T17:05:46.020Z,4.22
2022-09-09T17:08:18.856Z,4.20
2022-09-09T17:10:49.945Z,4.97
2022-09-09T17:13:21.077Z,7.78
2022-09-09T17:15:50.706Z,3.63
2022-09-09T17:18:19.665Z,4.93
2022-09-09T17:20:49.658Z,5.25
2022-09-09T17:23:25.725Z,6.00
2022-09-09T17:26:03.674Z,7.65
2022-09-09T17:28:32.732Z,6.32
2022-09-09T17:31:09.433Z,5.57
2022-09-09T17:33:40.745Z,4.38
2022-09-09T17:36:12.534Z,5.50
2022-09-09T17:38:43.709Z,5.90
2022-09-09T17:41:16.678Z,6.30
2022-09-09T17:43:45.166Z,5.97
2022-09-09T17:46:38.187Z,4.85
2022-09-09T17:49:10.402Z,6.50
2022-09-09T17:51:39.266Z,3.13
2022-09-09T17:54:10.444Z,5.00
2022-09-09T17:56:41.949Z,5.03
2022-09-09T17:59:13.977Z,5.40
2022-09-09T18:01:44.998Z,4.25
2022-09-09T18:04:17.945Z,5.35
2022-09-09T18:06:49.062Z,7.20
2022-09-09T18:09:19.786Z,2.50
2022-09-09T18:11:52.493Z,3.30
2022-09-09T18:14:24.471Z,2.88
2022-09-09T18:16:53.597Z,4.53
2022-09-09T18:19:25.727Z,2.65
2022-09-09T18:21:57.513Z,3.97
2022-09-09T18:24:29.069Z,4.30
2022-09-09T18:26:58.945Z,4.57
2022-09-09T18:29:28.766Z,6.35
2022-09-09T18:32:00.463Z,3.63
2022-09-09T18:34:30.412Z,4.22
2022-09-09T18:36:58.942Z,5.00
2022-09-09T18:39:30.166Z,6.47
2022-09-09T18:42:02.883Z,7.47
2022-09-09T18:44:34.726Z,5.90
2022-09-09T18:47:04.274Z,8.65
2022-09-09T18:49:33.588Z,8.55
2022-09-09T18:52:03.747Z,5.80
2022-09-09T18:54:34.274Z,4.38
2022-09-09T18:57:04.725Z,4.90
2022-09-09T18:59:37.492Z,4.88
2022-09-09T19:02:06.323Z,5.20
2022-09-09T19:04:35.183Z,5.30
2022-09-09T19:07:04.185Z,5.75
2022-09-09T19:09:34.452Z,8.00
2022-09-09T19:12:06.579Z,8.02
2022-09-09T19:14:35.560Z,6.93
2022-09-09T19:17:04.398Z,6.07
2022-09-09T19:19:34.784Z,5.60
2022-09-09T19:22:07.027Z,14.38
2022-09-09T19:24:35.488Z,37.85
2022-09-09T19:27:09.092Z,22.13
2022-09-09T19:29:43.893Z,18.52
2022-09-09T19:35:02.229Z,12.93
2022-09-09T19:37:32.570Z,15.35
2022-09-09T19:40:01.054Z,15.32
2022-09-09T19:42:34.619Z,10.95
2022-09-09T19:45:04.597Z,52.53
2022-09-09T19:47:33.440Z,53.80
2022-09-09T19:50:05.885Z,49.35
2022-09-09T19:52:34.537Z,75.82
2022-09-09T19:55:08.527Z,26.73
2022-09-09T19:57:41.897Z,11.73
2022-09-09T20:00:14.380Z,11.07
2022-09-09T20:02:53.874Z,8.18
2022-09-09T20:05:35.070Z,12.20
2022-09-09T20:08:08.978Z,12.02
2022-09-09T20:10:37.929Z,9.77
2022-09-09T20:13:08.431Z,9.30
2022-09-09T20:15:36.928Z,11.60
2022-09-09T20:18:06.900Z,8.52
2022-09-09T20:20:35.368Z,9.38
2022-09-09T20:23:04.029Z,10.07
2022-09-09T20:25:32.520Z,10.15
2022-09-09T20:28:01.205Z,7.95
2022-09-09T20:30:31.286Z,10.77
2022-09-09T20:33:00.441Z,8.85
2022-09-09T20:35:31.534Z,14.98
2022-09-09T20:38:01.176Z,9.23
2022-09-09T20:40:33.325Z,9.10
2022-09-09T20:43:01.980Z,8.70
2022-09-09T20:45:39.196Z,13.43
2022-09-09T20:48:08.336Z,5.25
2022-09-09T20:50:39.803Z,5.80
2022-09-09T20:53:10.346Z,6.35
2022-09-09T20:55:39.321Z,10.60
2022-09-09T20:58:08.370Z,7.28
2022-09-09T21:00:38.498Z,6.60
2022-09-09T21:03:12.017Z,7.03
2022-09-09T21:05:40.894Z,8.05
2022-09-09T21:08:09.564Z,8.48
2022-09-09T21:10:42.174Z,6.93
2022-09-09T21:13:13.328Z,4.70
2022-09-09T21:15:45.833Z,10.23
2022-09-09T21:18:14.450Z,8.80
2022-09-09T21:20:44.052Z,7.78
2022-09-09T21:23:13.532Z,8.27
2022-09-09T21:25:43.314Z,11.73
2022-09-09T21:28:13.287Z,6.35
2022-09-09T21:30:44.349Z,7.90
2022-09-09T21:33:15.219Z,7.70
2022-09-09T21:35:45.242Z,9.75
2022-09-09T21:38:17.777Z,12.23
2022-09-09T21:40:46.874Z,9.90
2022-09-09T21:43:16.662Z,14.63
2022-09-09T21:45:46.890Z,15.35
2022-09-09T21:48:18.253Z,15.70
2022-09-09T21:50:49.715Z,13.65
2022-09-09T21:53:20.608Z,8.43
2022-09-09T21:55:50.240Z,12.52
2022-09-09T21:58:19.627Z,10.73
2022-09-09T22:00:50.700Z,13.07
2022-09-09T22:03:23.569Z,11.48
2022-09-09T22:05:54.278Z,11.88
2022-09-09T22:08:23.094Z,12.15
2022-09-09T22:10:51.589Z,13.32
2022-09-09T22:13:21.144Z,13.20
2022-09-09T22:15:51.510Z,12.25
2022-09-09T22:18:20.140Z,13.57
2022-09-09T22:20:49.034Z,10.32
2022-09-09T22:23:17.570Z,11.50
2022-09-09T22:25:47.493Z,12.68
2022-09-09T22:28:17.015Z,13.77
2022-09-09T22:30:45.842Z,10.80
2022-09-09T22:33:15.679Z,8.43
2022-09-09T22:35:45.235Z,12.07
2022-09-09T22:38:14.258Z,10.10
2022-09-09T22:40:43.521Z,12.35
2022-09-09T22:43:16.771Z,11.68
2022-09-09T22:45:46.378Z,10.57
2022-09-09T22:48:17.070Z,9.75
2022-09-09T22:50:57.250Z,11.63
2022-09-09T22:53:57.962Z,11.82
2022-09-09T22:56:52.271Z,12.68
2022-09-09T22:59:50.976Z,16.02
2022-09-09T23:02:38.676Z,14.00
2022-09-09T23:05:13.009Z,14.85
2022-09-09T23:07:47.452Z,10.93
2022-09-09T23:10:23.888Z,9.18
2022-09-09T23:13:05.921Z,10.68
2022-09-09T23:15:44.327Z,9.60
2022-09-09T23:18:13.607Z,11.30
2022-09-09T23:20:45.630Z,8.63
2022-09-09T23:23:14.360Z,10.35
2022-09-09T23:25:44.020Z,15.50
2022-09-09T23:28:12.525Z,11.45
2022-09-09T23:30:43.640Z,9.10
2022-09-09T23:33:11.952Z,11.48
2022-09-09T23:35:41.268Z,12.70
2022-09-09T23:38:12.172Z,13.70
2022-09-09T23:40:40.823Z,13.90
2022-09-09T23:43:09.425Z,13.30
2022-09-09T23:45:38.262Z,14.00
2022-09-09T23:48:06.992Z,13.93
2022-09-09T23:50:37.381Z,11.95
2022-09-09T23:53:08.738Z,14.55
2022-09-09T23:55:40.398Z,13.93
2022-09-09T23:58:09.957Z,14.25
